createdAt,value
2023-05-21T00:01:09.545Z,20.34
2023-05-21T00:06:13.407Z,20.65
2023-05-21T00:11:17.808Z,20.19
2023-05-21T00:16:19.509Z,20.59
2023-05-21T00:21:26.367Z,20.69
2023-05-21T00:26:28.091Z,20.55
2023-05-21T00:31:32.304Z,20.40
2023-05-21T00:36:34.762Z,20.01
2023-05-21T00:41:36.448Z,20.08
2023-05-21T00:46:39.667Z,20.11
2023-05-21T00:51:41.532Z,19.88
2023-05-21T00:56:43.245Z,20.05
2023-05-21T01:01:45.659Z,20.15
2023-05-21T01:06:47.361Z,20.09
2023-05-21T01:11:51.213Z,20.27
2023-05-21T01:16:56.199Z,20.35
2023-05-21T01:22:01.817Z,20.22
2023-05-21T01:27:06.738Z,19.97
2023-05-21T01:32:23.675Z,19.77
2023-05-21T01:37:41.841Z,19.97
2023-05-21T01:42:45.635Z,19.69
2023-05-21T01:47:52.800Z,19.85
2023-05-21T01:52:57.044Z,19.72
2023-05-21T01:58:01.963Z,19.37
2023-05-21T02:03:04.336Z,19.52
2023-05-21T02:08:08.400Z,19.14
2023-05-21T02:13:10.016Z,19.10
2023-05-21T02:18:16.761Z,19.26
2023-05-21T02:23:18.829Z,19.06
2023-05-21T02:28:21.384Z,19.31
2023-05-21T02:33:23.175Z,19.15
2023-05-21T02:38:27.513Z,19.14
2023-05-21T02:43:29.138Z,19.24
2023-05-21T02:48:30.720Z,19.23
2023-05-21T02:53:32.515Z,18.90
2023-05-21T02:58:34.241Z,18.57
2023-05-21T03:03:35.903Z,18.76
2023-05-21T03:08:38.130Z,18.65
2023-05-21T03:13:39.768Z,18.37
2023-05-21T03:18:41.646Z,18.41
2023-05-21T03:23:43.387Z,18.42
2023-05-21T03:28:45.152Z,18.36
2023-05-21T03:33:47.422Z,18.39
2023-05-21T03:38:57.184Z,18.29
2023-05-21T03:43:59.107Z,18.33
2023-05-21T03:49:06.005Z,18.14
2023-05-21T03:54:10.088Z,18.11
2023-05-21T03:59:14.699Z,17.90
2023-05-21T04:04:17.742Z,18.08
2023-05-21T04:09:19.411Z,17.95
2023-05-21T04:14:21.468Z,18.08
2023-05-21T04:19:23.185Z,18.48
2023-05-21T04:24:25.470Z,18.37
2023-05-21T04:29:58.017Z,18.22
2023-05-21T04:35:01.134Z,18.31
2023-05-21T04:40:04.283Z,18.44
2023-05-21T04:45:06.598Z,18.18
2023-05-21T04:50:12.045Z,18.64
2023-05-21T04:55:13.684Z,18.65
2023-05-21T05:00:16.514Z,18.28
2023-05-21T05:05:20.204Z,18.42
2023-05-21T05:10:23.471Z,18.79
2023-05-21T05:15:26.834Z,18.65
2023-05-21T05:20:28.492Z,18.65
2023-05-21T05:25:30.401Z,18.73
2023-05-21T05:30:34.279Z,18.70
2023-05-21T05:35:46.731Z,18.73
2023-05-21T05:40:48.398Z,18.77
2023-05-21T05:45:50.083Z,19.13
2023-05-21T05:50:54.713Z,19.31
2023-05-21T05:55:57.546Z,18.96
2023-05-21T06:00:59.198Z,18.94
2023-05-21T06:06:02.713Z,19.39
2023-05-21T06:11:05.835Z,19.05
2023-05-21T06:16:07.629Z,19.25
2023-05-21T06:21:09.417Z,19.70
2023-05-21T06:26:11.157Z,19.71
2023-05-21T06:31:13.712Z,19.87
2023-05-21T06:36:17.071Z,20.18
2023-05-21T06:41:19.336Z,20.09
2023-05-21T06:46:25.488Z,20.84
2023-05-21T06:51:27.354Z,21.30
2023-05-21T06:56:30.070Z,21.05
2023-05-21T07:01:32.384Z,21.31
2023-05-21T07:06:35.432Z,21.29
2023-05-21T07:11:38.908Z,20.56
2023-05-21T07:16:41.403Z,21.17
2023-05-21T07:21:43.602Z,21.46
2023-05-21T07:26:46.309Z,21.34
2023-05-21T07:31:48.205Z,21.00
2023-05-21T07:36:49.986Z,21.86
2023-05-21T07:41:51.742Z,21.69
2023-05-21T07:46:53.539Z,21.81
2023-05-21T07:51:55.274Z,21.96
2023-05-21T07:56:56.981Z,21.90
2023-05-21T08:02:21.784Z,21.39
2023-05-21T08:07:23.750Z,21.44
2023-05-21T08:12:25.733Z,22.79
2023-05-21T08:17:28.847Z,21.89
2023-05-21T08:22:30.795Z,21.79
2023-05-21T08:27:32.477Z,22.29
2023-05-21T08:32:34.511Z,22.56
2023-05-21T08:37:36.857Z,22.92
2023-05-21T08:42:50.048Z,24.02
2023-05-21T08:48:13.246Z,23.89
2023-05-21T08:53:27.251Z,23.99
2023-05-21T08:58:33.831Z,24.55
2023-05-21T09:03:40.584Z,24.26
2023-05-21T09:08:54.103Z,25.05
2023-05-21T09:14:11.563Z,24.98
2023-05-21T09:19:37.911Z,24.93
2023-05-21T09:24:40.141Z,24.22
2023-05-21T09:29:42.289Z,25.01
2023-05-21T09:34:44.053Z,25.44
2023-05-21T09:39:47.843Z,26.27
2023-05-21T09:44:49.940Z,27.38
2023-05-21T09:49:51.566Z,25.55
2023-05-21T09:54:53.680Z,27.76
2023-05-21T09:59:56.009Z,26.69
2023-05-21T10:04:58.129Z,26.38
2023-05-21T10:10:01.714Z,27.07
2023-05-21T10:15:04.776Z,25.93
2023-05-21T10:20:08.554Z,26.85
2023-05-21T10:25:10.698Z,26.66
2023-05-21T10:30:12.298Z,26.94
2023-05-21T10:35:16.228Z,27.09
2023-05-21T10:40:24.654Z,27.14
2023-05-21T10:46:06.165Z,26.79
2023-05-21T10:58:15.378Z,27.74
2023-05-21T11:03:17.728Z,27.67
2023-05-21T11:08:25.834Z,28.01
2023-05-21T11:13:28.616Z,28.64
2023-05-21T11:24:23.812Z,27.37
2023-05-21T11:29:42.708Z,28.24
2023-05-21T11:34:46.175Z,28.33
2023-05-21T11:39:48.821Z,28.61
2023-05-21T11:44:50.482Z,27.11
2023-05-21T11:49:52.632Z,28.15
2023-05-21T11:54:58.314Z,27.96
2023-05-21T12:00:02.553Z,28.67
2023-05-21T12:05:14.458Z,27.83
2023-05-21T12:10:21.198Z,28.11
2023-05-21T12:15:26.015Z,28.02
2023-05-21T12:20:28.793Z,30.36
2023-05-21T12:25:32.064Z,27.71
2023-05-21T12:30:33.815Z,28.11
2023-05-21T12:35:36.160Z,29.48
2023-05-21T12:40:42.785Z,30.04
2023-05-21T12:45:46.557Z,29.04
2023-05-21T12:50:48.325Z,29.07
2023-05-21T12:55:50.543Z,29.79
2023-05-21T13:00:55.253Z,30.28
2023-05-21T13:06:01.268Z,29.78
2023-05-21T13:11:03.501Z,29.43
2023-05-21T13:16:06.268Z,29.90
2023-05-21T13:21:07.881Z,29.55
2023-05-21T13:26:09.869Z,28.80
2023-05-21T13:31:12.221Z,29.23
2023-05-21T13:36:13.863Z,29.12
2023-05-21T13:41:15.488Z,29.44
2023-05-21T13:46:17.173Z,29.09
2023-05-21T13:51:37.067Z,28.40
2023-05-21T13:56:40.024Z,28.68
2023-05-21T14:01:41.920Z,30.22
2023-05-21T14:06:43.873Z,29.24
2023-05-21T14:11:45.638Z,28.38
2023-05-21T14:16:47.584Z,29.10
2023-05-21T14:21:51.817Z,30.00
2023-05-21T14:26:53.409Z,30.48
2023-05-21T14:31:54.978Z,29.93
2023-05-21T14:36:56.560Z,29.78
2023-05-21T14:41:58.299Z,30.40
2023-05-21T14:46:59.985Z,30.19
2023-05-21T14:52:01.636Z,29.74
2023-05-21T14:57:03.350Z,30.63
2023-05-21T15:02:05.316Z,30.48
2023-05-21T15:07:07.003Z,30.13
2023-05-21T15:12:08.586Z,29.82
2023-05-21T15:17:10.117Z,30.04
2023-05-21T15:22:11.739Z,30.97
2023-05-21T15:27:13.321Z,30.03
2023-05-21T15:32:15.127Z,30.07
2023-05-21T15:37:16.903Z,30.11
2023-05-21T15:42:20.263Z,30.53
2023-05-21T15:47:22.275Z,30.82
2023-05-21T15:52:24.029Z,29.91
2023-05-21T15:57:25.699Z,30.19
2023-05-21T16:02:27.331Z,31.33
2023-05-21T16:07:29.003Z,29.90
2023-05-21T16:12:30.656Z,30.38
2023-05-21T16:17:32.353Z,29.98
2023-05-21T16:22:34.001Z,30.23
2023-05-21T16:27:36.230Z,29.82
2023-05-21T16:32:39.507Z,30.46
2023-05-21T16:37:41.158Z,30.06
2023-05-21T16:42:43.457Z,29.05
2023-05-21T16:47:48.843Z,31.30
2023-05-21T16:52:50.397Z,30.11
2023-05-21T16:57:51.943Z,30.32
2023-05-21T17:02:54.143Z,29.48
2023-05-21T17:07:55.875Z,30.67
2023-05-21T17:12:59.829Z,29.82
2023-05-21T17:18:03.657Z,30.91
2023-05-21T17:23:05.420Z,30.02
2023-05-21T17:28:07.237Z,30.12
2023-05-21T17:33:10.337Z,29.59
2023-05-21T17:38:12.374Z,29.88
2023-05-21T17:43:13.955Z,30.37
2023-05-21T17:48:15.663Z,29.90
2023-05-21T17:53:18.165Z,29.25
2023-05-21T17:58:19.865Z,29.30
2023-05-21T18:03:22.089Z,29.19
2023-05-21T18:08:23.686Z,28.99
2023-05-21T18:13:25.318Z,29.73
2023-05-21T18:18:27.042Z,29.00
2023-05-21T18:23:30.582Z,29.32
2023-05-21T18:28:33.396Z,28.38
2023-05-21T18:33:34.948Z,28.81
2023-05-21T18:38:36.670Z,29.20
2023-05-21T18:43:38.397Z,29.24
2023-05-21T18:48:40.164Z,28.97
2023-05-21T18:53:44.734Z,28.58
2023-05-21T18:58:47.586Z,27.84
2023-05-21T19:03:49.452Z,27.82
2023-05-21T19:08:54.618Z,27.94
2023-05-21T19:13:56.654Z,28.24
2023-05-21T19:18:58.666Z,28.41
2023-05-21T19:24:01.056Z,27.63
2023-05-21T19:29:02.877Z,26.91
2023-05-21T19:34:16.977Z,26.78
2023-05-21T19:39:18.596Z,26.80
2023-05-21T19:44:20.340Z,26.97
2023-05-21T19:49:21.931Z,26.85
2023-05-21T19:54:24.363Z,27.08
2023-05-21T19:59:26.456Z,26.70
2023-05-21T20:04:32.111Z,26.47
2023-05-21T20:09:33.822Z,26.12
2023-05-21T20:14:37.652Z,26.03
2023-05-21T20:19:39.291Z,25.88
2023-05-21T20:24:41.151Z,25.86
2023-05-21T20:29:42.929Z,25.68
2023-05-21T20:35:01.554Z,25.71
2023-05-21T20:40:05.741Z,25.71
2023-05-21T20:45:07.884Z,25.56
2023-05-21T20:50:09.779Z,25.37
2023-05-21T20:55:12.718Z,25.44
2023-05-21T21:00:15.965Z,25.70
2023-05-21T21:05:17.723Z,25.11
2023-05-21T21:10:20.028Z,25.19
2023-05-21T21:15:21.658Z,25.35
2023-05-21T21:20:23.211Z,25.32
2023-05-21T21:25:24.837Z,25.49
2023-05-21T21:30:26.527Z,25.60
2023-05-21T21:35:28.057Z,25.17
2023-05-21T21:40:29.612Z,25.45
2023-05-21T21:45:31.956Z,25.41
2023-05-21T21:50:33.709Z,25.54
2023-05-21T21:55:35.347Z,25.50
2023-05-21T22:00:37.171Z,26.78
2023-05-21T22:05:38.952Z,27.69
2023-05-21T22:10:40.686Z,27.24
2023-05-21T22:15:42.455Z,26.66
2023-05-21T22:20:46.062Z,26.68
2023-05-21T22:25:47.637Z,25.55
2023-05-21T22:30:49.357Z,25.52
2023-05-21T22:35:53.352Z,24.83
2023-05-21T22:40:55.056Z,25.33
2023-05-21T22:45:56.588Z,25.70
2023-05-21T22:50:58.531Z,25.80
2023-05-21T22:56:00.796Z,24.84
2023-05-21T23:01:02.577Z,25.48
2023-05-21T23:06:04.186Z,25.58
2023-05-21T23:11:06.059Z,23.91
2023-05-21T23:16:07.894Z,24.64
2023-05-21T23:21:09.491Z,25.12
2023-05-21T23:26:11.509Z,24.21
2023-05-21T23:31:13.672Z,23.24
2023-05-21T23:36:15.375Z,23.18
2023-05-21T23:41:17.002Z,23.02
2023-05-21T23:46:18.915Z,22.90
2023-05-21T23:51:21.569Z,23.32
2023-05-21T23:56:23.217Z,23.84
